sensor_id;sensor_type;location;lat;lon;timestamp;P1;durP1;ratioP1;P2;durP2;ratioP2
40635;SDS011;26642;55.766;37.828;2023-05-23T00:02:15;15.43;;;10.77;;
40635;SDS011;26642;55.766;37.828;2023-05-23T00:04:41;16.00;;;10.90;;
40635;SDS011;26642;55.766;37.828;2023-05-23T00:07:08;18.58;;;11.75;;
40635;SDS011;26642;55.766;37.828;2023-05-23T00:09:34;15.80;;;11.52;;
40635;SDS011;26642;55.766;37.828;2023-05-23T00:12:01;15.40;;;10.98;;
40635;SDS011;26642;55.766;37.828;2023-05-23T00:14:27;17.85;;;11.73;;
40635;SDS011;26642;55.766;37.828;2023-05-23T00:16:58;16.40;;;11.52;;
40635;SDS011;26642;55.766;37.828;2023-05-23T00:19:25;16.67;;;12.23;;
40635;SDS011;26642;55.766;37.828;2023-05-23T00:21:51;14.32;;;12.55;;
40635;SDS011;26642;55.766;37.828;2023-05-23T00:24:21;16.55;;;12.15;;
40635;SDS011;26642;55.766;37.828;2023-05-23T00:26:46;14.65;;;11.52;;
40635;SDS011;26642;55.766;37.828;2023-05-23T00:29:13;17.50;;;12.02;;
40635;SDS011;26642;55.766;37.828;2023-05-23T00:31:42;17.63;;;12.32;;
40635;SDS011;26642;55.766;37.828;2023-05-23T00:34:16;17.05;;;12.02;;
40635;SDS011;26642;55.766;37.828;2023-05-23T00:36:42;19.05;;;13.07;;
40635;SDS011;26642;55.766;37.828;2023-05-23T00:39:12;18.17;;;14.02;;
40635;SDS011;26642;55.766;37.828;2023-05-23T00:41:44;15.73;;;12.48;;
40635;SDS011;26642;55.766;37.828;2023-05-23T00:44:11;15.02;;;11.55;;
40635;SDS011;26642;55.766;37.828;2023-05-23T00:46:37;16.77;;;12.07;;
40635;SDS011;26642;55.766;37.828;2023-05-23T00:49:03;16.83;;;11.50;;
40635;SDS011;26642;55.766;37.828;2023-05-23T00:51:29;16.83;;;11.75;;
40635;SDS011;26642;55.766;37.828;2023-05-23T00:53:56;14.30;;;11.40;;
40635;SDS011;26642;55.766;37.828;2023-05-23T00:56:25;13.85;;;10.73;;
40635;SDS011;26642;55.766;37.828;2023-05-23T00:58:53;17.27;;;11.93;;
40635;SDS011;26642;55.766;37.828;2023-05-23T01:01:19;19.50;;;10.80;;
40635;SDS011;26642;55.766;37.828;2023-05-23T01:03:45;16.63;;;10.80;;
40635;SDS011;26642;55.766;37.828;2023-05-23T01:06:13;15.40;;;10.75;;
40635;SDS011;26642;55.766;37.828;2023-05-23T01:08:39;14.35;;;10.50;;
40635;SDS011;26642;55.766;37.828;2023-05-23T01:11:10;14.90;;;10.30;;
40635;SDS011;26642;55.766;37.828;2023-05-23T01:14:09;16.02;;;10.65;;
40635;SDS011;26642;55.766;37.828;2023-05-23T01:16:47;12.93;;;10.43;;
40635;SDS011;26642;55.766;37.828;2023-05-23T01:22:00;15.98;;;10.60;;
40635;SDS011;26642;55.766;37.828;2023-05-23T01:24:40;14.18;;;10.02;;
40635;SDS011;26642;55.766;37.828;2023-05-23T01:30:12;17.60;;;10.55;;
40635;SDS011;26642;55.766;37.828;2023-05-23T01:32:40;13.55;;;9.82;;
40635;SDS011;26642;55.766;37.828;2023-05-23T01:35:07;12.25;;;10.27;;
40635;SDS011;26642;55.766;37.828;2023-05-23T01:37:35;12.38;;;9.38;;
40635;SDS011;26642;55.766;37.828;2023-05-23T01:40:01;14.35;;;9.27;;
40635;SDS011;26642;55.766;37.828;2023-05-23T01:42:29;16.10;;;10.02;;
40635;SDS011;26642;55.766;37.828;2023-05-23T01:44:55;13.65;;;10.05;;
40635;SDS011;26642;55.766;37.828;2023-05-23T01:47:23;12.23;;;9.30;;
40635;SDS011;26642;55.766;37.828;2023-05-23T01:49:50;12.40;;;9.80;;
40635;SDS011;26642;55.766;37.828;2023-05-23T01:52:18;16.23;;;10.20;;
40635;SDS011;26642;55.766;37.828;2023-05-23T01:54:45;12.80;;;10.15;;
40635;SDS011;26642;55.766;37.828;2023-05-23T01:57:14;13.23;;;9.48;;
40635;SDS011;26642;55.766;37.828;2023-05-23T01:59:40;13.63;;;9.65;;
40635;SDS011;26642;55.766;37.828;2023-05-23T02:02:07;12.65;;;10.13;;
40635;SDS011;26642;55.766;37.828;2023-05-23T02:04:33;13.77;;;9.73;;
40635;SDS011;26642;55.766;37.828;2023-05-23T02:06:59;11.77;;;9.05;;
40635;SDS011;26642;55.766;37.828;2023-05-23T02:09:25;15.18;;;9.68;;
40635;SDS011;26642;55.766;37.828;2023-05-23T02:11:51;13.68;;;8.88;;
40635;SDS011;26642;55.766;37.828;2023-05-23T02:14:17;14.63;;;8.68;;
40635;SDS011;26642;55.766;37.828;2023-05-23T02:16:46;11.82;;;8.35;;
40635;SDS011;26642;55.766;37.828;2023-05-23T02:19:11;13.57;;;8.88;;
40635;SDS011;26642;55.766;37.828;2023-05-23T02:21:37;11.52;;;8.20;;
40635;SDS011;26642;55.766;37.828;2023-05-23T02:24:03;15.60;;;8.38;;
40635;SDS011;26642;55.766;37.828;2023-05-23T02:26:29;13.45;;;8.18;;
40635;SDS011;26642;55.766;37.828;2023-05-23T02:28:55;13.80;;;8.25;;
40635;SDS011;26642;55.766;37.828;2023-05-23T02:31:23;12.75;;;8.20;;
40635;SDS011;26642;55.766;37.828;2023-05-23T02:33:49;10.50;;;7.32;;
40635;SDS011;26642;55.766;37.828;2023-05-23T02:36:15;9.73;;;7.68;;
40635;SDS011;26642;55.766;37.828;2023-05-23T02:38:42;11.70;;;7.53;;
40635;SDS011;26642;55.766;37.828;2023-05-23T02:41:08;10.68;;;7.95;;
40635;SDS011;26642;55.766;37.828;2023-05-23T02:43:34;11.30;;;8.15;;
40635;SDS011;26642;55.766;37.828;2023-05-23T02:46:01;11.43;;;7.63;;
40635;SDS011;26642;55.766;37.828;2023-05-23T02:48:27;10.13;;;7.75;;
40635;SDS011;26642;55.766;37.828;2023-05-23T02:50:53;10.30;;;7.90;;
40635;SDS011;26642;55.766;37.828;2023-05-23T02:53:19;11.52;;;8.10;;
40635;SDS011;26642;55.766;37.828;2023-05-23T02:55:45;9.88;;;8.00;;
40635;SDS011;26642;55.766;37.828;2023-05-23T02:58:11;9.88;;;7.55;;
40635;SDS011;26642;55.766;37.828;2023-05-23T03:00:37;14.52;;;7.50;;
40635;SDS011;26642;55.766;37.828;2023-05-23T03:03:03;12.18;;;7.47;;
40635;SDS011;26642;55.766;37.828;2023-05-23T03:05:29;9.98;;;7.55;;
40635;SDS011;26642;55.766;37.828;2023-05-23T03:07:55;11.52;;;7.38;;
40635;SDS011;26642;55.766;37.828;2023-05-23T03:10:22;14.93;;;8.15;;
40635;SDS011;26642;55.766;37.828;2023-05-23T03:12:48;12.80;;;8.32;;
40635;SDS011;26642;55.766;37.828;2023-05-23T03:15:15;14.88;;;8.13;;
40635;SDS011;26642;55.766;37.828;2023-05-23T03:17:42;10.93;;;8.02;;
40635;SDS011;26642;55.766;37.828;2023-05-23T03:20:08;14.02;;;7.80;;
40635;SDS011;26642;55.766;37.828;2023-05-23T03:22:37;15.02;;;8.30;;
40635;SDS011;26642;55.766;37.828;2023-05-23T03:25:03;9.90;;;7.85;;
40635;SDS011;26642;55.766;37.828;2023-05-23T03:27:29;11.80;;;7.93;;
40635;SDS011;26642;55.766;37.828;2023-05-23T03:29:55;11.18;;;8.32;;
40635;SDS011;26642;55.766;37.828;2023-05-23T03:32:21;13.02;;;8.63;;
40635;SDS011;26642;55.766;37.828;2023-05-23T03:34:48;12.50;;;8.27;;
40635;SDS011;26642;55.766;37.828;2023-05-23T03:37:14;11.75;;;8.50;;
40635;SDS011;26642;55.766;37.828;2023-05-23T03:39:40;12.35;;;7.63;;
40635;SDS011;26642;55.766;37.828;2023-05-23T03:42:06;10.27;;;7.38;;
40635;SDS011;26642;55.766;37.828;2023-05-23T03:44:33;12.80;;;7.15;;
40635;SDS011;26642;55.766;37.828;2023-05-23T03:47:00;13.55;;;7.93;;
40635;SDS011;26642;55.766;37.828;2023-05-23T03:49:26;10.38;;;7.80;;
40635;SDS011;26642;55.766;37.828;2023-05-23T03:51:52;12.10;;;7.93;;
40635;SDS011;26642;55.766;37.828;2023-05-23T03:54:18;11.77;;;8.35;;
40635;SDS011;26642;55.766;37.828;2023-05-23T03:56:44;12.57;;;7.70;;
40635;SDS011;26642;55.766;37.828;2023-05-23T03:59:10;14.73;;;8.43;;
40635;SDS011;26642;55.766;37.828;2023-05-23T04:01:36;12.32;;;7.68;;
40635;SDS011;26642;55.766;37.828;2023-05-23T04:04:02;14.68;;;8.23;;
40635;SDS011;26642;55.766;37.828;2023-05-23T04:06:31;10.60;;;7.88;;
40635;SDS011;26642;55.766;37.828;2023-05-23T04:08:58;12.85;;;7.88;;
40635;SDS011;26642;55.766;37.828;2023-05-23T04:11:24;12.85;;;8.13;;
40635;SDS011;26642;55.766;37.828;2023-05-23T04:13:54;12.00;;;8.20;;
40635;SDS011;26642;55.766;37.828;2023-05-23T04:16:20;10.27;;;7.63;;
40635;SDS011;26642;55.766;37.828;2023-05-23T04:18:47;12.98;;;7.80;;
40635;SDS011;26642;55.766;37.828;2023-05-23T04:21:13;11.48;;;7.78;;
40635;SDS011;26642;55.766;37.828;2023-05-23T04:26:14;13.63;;;8.02;;
40635;SDS011;26642;55.766;37.828;2023-05-23T04:28:46;9.48;;;7.95;;
40635;SDS011;26642;55.766;37.828;2023-05-23T04:31:13;12.07;;;7.78;;
40635;SDS011;26642;55.766;37.828;2023-05-23T04:33:40;12.00;;;7.93;;
40635;SDS011;26642;55.766;37.828;2023-05-23T04:36:07;12.25;;;8.15;;
40635;SDS011;26642;55.766;37.828;2023-05-23T04:38:35;13.93;;;8.00;;
40635;SDS011;26642;55.766;37.828;2023-05-23T04:41:03;14.30;;;7.13;;
40635;SDS011;26642;55.766;37.828;2023-05-23T04:43:36;17.08;;;8.40;;
40635;SDS011;26642;55.766;37.828;2023-05-23T04:46:25;13.30;;;7.60;;
40635;SDS011;26642;55.766;37.828;2023-05-23T04:49:06;15.82;;;7.80;;
40635;SDS011;26642;55.766;37.828;2023-05-23T04:51:33;14.35;;;7.90;;
40635;SDS011;26642;55.766;37.828;2023-05-23T04:54:09;13.05;;;9.35;;
40635;SDS011;26642;55.766;37.828;2023-05-23T04:56:35;12.27;;;8.27;;
40635;SDS011;26642;55.766;37.828;2023-05-23T04:59:01;16.90;;;9.23;;
40635;SDS011;26642;55.766;37.828;2023-05-23T05:01:28;16.25;;;9.45;;
40635;SDS011;26642;55.766;37.828;2023-05-23T05:03:55;16.83;;;9.00;;
40635;SDS011;26642;55.766;37.828;2023-05-23T05:06:22;16.00;;;9.25;;
40635;SDS011;26642;55.766;37.828;2023-05-23T05:08:50;17.38;;;9.43;;
40635;SDS011;26642;55.766;37.828;2023-05-23T05:11:16;17.27;;;10.25;;
40635;SDS011;26642;55.766;37.828;2023-05-23T05:13:42;13.02;;;9.13;;
40635;SDS011;26642;55.766;37.828;2023-05-23T05:16:08;14.45;;;8.98;;
40635;SDS011;26642;55.766;37.828;2023-05-23T05:18:35;14.30;;;8.50;;
40635;SDS011;26642;55.766;37.828;2023-05-23T05:21:01;13.32;;;8.27;;
40635;SDS011;26642;55.766;37.828;2023-05-23T05:23:30;11.50;;;7.70;;
40635;SDS011;26642;55.766;37.828;2023-05-23T05:25:58;10.73;;;7.05;;
40635;SDS011;26642;55.766;37.828;2023-05-23T05:28:26;13.45;;;7.10;;
40635;SDS011;26642;55.766;37.828;2023-05-23T05:30:53;10.40;;;6.47;;
40635;SDS011;26642;55.766;37.828;2023-05-23T05:33:20;12.63;;;6.55;;
40635;SDS011;26642;55.766;37.828;2023-05-23T05:35:50;10.88;;;6.40;;
40635;SDS011;26642;55.766;37.828;2023-05-23T05:38:16;8.88;;;5.97;;
40635;SDS011;26642;55.766;37.828;2023-05-23T05:40:42;9.38;;;5.78;;
40635;SDS011;26642;55.766;37.828;2023-05-23T05:43:09;8.38;;;5.85;;
40635;SDS011;26642;55.766;37.828;2023-05-23T05:45:35;10.35;;;5.82;;
40635;SDS011;26642;55.766;37.828;2023-05-23T05:48:02;8.57;;;5.90;;
40635;SDS011;26642;55.766;37.828;2023-05-23T05:50:28;7.55;;;5.53;;
40635;SDS011;26642;55.766;37.828;2023-05-23T05:52:54;6.50;;;5.18;;
40635;SDS011;26642;55.766;37.828;2023-05-23T05:55:21;8.95;;;5.63;;
40635;SDS011;26642;55.766;37.828;2023-05-23T05:57:50;7.45;;;4.93;;
40635;SDS011;26642;55.766;37.828;2023-05-23T06:00:17;7.40;;;5.10;;
40635;SDS011;26642;55.766;37.828;2023-05-23T06:02:51;10.80;;;5.47;;
40635;SDS011;26642;55.766;37.828;2023-05-23T06:05:44;12.27;;;5.35;;
40635;SDS011;26642;55.766;37.828;2023-05-23T06:08:10;8.40;;;5.07;;
40635;SDS011;26642;55.766;37.828;2023-05-23T06:10:36;9.27;;;5.40;;
40635;SDS011;26642;55.766;37.828;2023-05-23T06:13:03;7.82;;;5.25;;
40635;SDS011;26642;55.766;37.828;2023-05-23T06:15:31;7.25;;;5.28;;
40635;SDS011;26642;55.766;37.828;2023-05-23T06:17:57;9.35;;;5.03;;
40635;SDS011;26642;55.766;37.828;2023-05-23T06:20:24;6.78;;;4.85;;
40635;SDS011;26642;55.766;37.828;2023-05-23T06:22:51;6.15;;;4.65;;
40635;SDS011;26642;55.766;37.828;2023-05-23T06:25:17;8.52;;;4.78;;
40635;SDS011;26642;55.766;37.828;2023-05-23T06:27:45;8.02;;;4.80;;
40635;SDS011;26642;55.766;37.828;2023-05-23T06:30:11;5.38;;;4.30;;
40635;SDS011;26642;55.766;37.828;2023-05-23T06:32:38;6.07;;;4.28;;
40635;SDS011;26642;55.766;37.828;2023-05-23T06:35:05;8.73;;;4.47;;
40635;SDS011;26642;55.766;37.828;2023-05-23T06:37:32;8.90;;;4.45;;
40635;SDS011;26642;55.766;37.828;2023-05-23T06:39:58;8.98;;;4.30;;
40635;SDS011;26642;55.766;37.828;2023-05-23T06:42:25;7.75;;;4.63;;
40635;SDS011;26642;55.766;37.828;2023-05-23T06:45:16;6.13;;;4.32;;
40635;SDS011;26642;55.766;37.828;2023-05-23T06:47:42;6.40;;;3.83;;
40635;SDS011;26642;55.766;37.828;2023-05-23T06:50:10;9.27;;;4.30;;
40635;SDS011;26642;55.766;37.828;2023-05-23T06:52:36;8.52;;;4.30;;
40635;SDS011;26642;55.766;37.828;2023-05-23T06:55:03;6.28;;;4.78;;
40635;SDS011;26642;55.766;37.828;2023-05-23T06:57:29;6.70;;;3.83;;
40635;SDS011;26642;55.766;37.828;2023-05-23T06:59:55;5.95;;;4.10;;
40635;SDS011;26642;55.766;37.828;2023-05-23T07:02:21;12.25;;;4.95;;
40635;SDS011;26642;55.766;37.828;2023-05-23T07:04:48;7.30;;;4.13;;
40635;SDS011;26642;55.766;37.828;2023-05-23T07:07:21;7.82;;;4.53;;
40635;SDS011;26642;55.766;37.828;2023-05-23T07:09:48;6.50;;;4.40;;
40635;SDS011;26642;55.766;37.828;2023-05-23T07:12:17;6.78;;;4.13;;
40635;SDS011;26642;55.766;37.828;2023-05-23T07:14:45;6.38;;;4.03;;
40635;SDS011;26642;55.766;37.828;2023-05-23T07:17:12;6.95;;;4.05;;
40635;SDS011;26642;55.766;37.828;2023-05-23T07:19:38;5.88;;;3.65;;
40635;SDS011;26642;55.766;37.828;2023-05-23T07:22:05;10.80;;;4.15;;
40635;SDS011;26642;55.766;37.828;2023-05-23T07:24:33;7.35;;;4.38;;
40635;SDS011;26642;55.766;37.828;2023-05-23T07:26:59;7.80;;;4.50;;
40635;SDS011;26642;55.766;37.828;2023-05-23T07:29:25;8.30;;;4.72;;
40635;SDS011;26642;55.766;37.828;2023-05-23T07:31:52;6.22;;;4.00;;
40635;SDS011;26642;55.766;37.828;2023-05-23T07:34:20;6.72;;;4.50;;
40635;SDS011;26642;55.766;37.828;2023-05-23T07:36:53;7.78;;;6.05;;
40635;SDS011;26642;55.766;37.828;2023-05-23T07:39:20;7.43;;;5.25;;
40635;SDS011;26642;55.766;37.828;2023-05-23T07:41:49;6.90;;;5.35;;
40635;SDS011;26642;55.766;37.828;2023-05-23T07:44:17;7.63;;;5.22;;
40635;SDS011;26642;55.766;37.828;2023-05-23T07:46:43;12.55;;;5.60;;
40635;SDS011;26642;55.766;37.828;2023-05-23T07:49:10;6.72;;;4.90;;
40635;SDS011;26642;55.766;37.828;2023-05-23T07:51:36;9.05;;;5.03;;
40635;SDS011;26642;55.766;37.828;2023-05-23T07:54:03;7.70;;;5.28;;
40635;SDS011;26642;55.766;37.828;2023-05-23T07:56:30;6.03;;;4.90;;
40635;SDS011;26642;55.766;37.828;2023-05-23T07:58:56;7.38;;;5.20;;
40635;SDS011;26642;55.766;37.828;2023-05-23T08:01:22;7.00;;;5.13;;
40635;SDS011;26642;55.766;37.828;2023-05-23T08:04:11;6.68;;;4.53;;
40635;SDS011;26642;55.766;37.828;2023-05-23T08:06:42;7.30;;;4.45;;
40635;SDS011;26642;55.766;37.828;2023-05-23T08:09:11;8.48;;;4.97;;
40635;SDS011;26642;55.766;37.828;2023-05-23T08:11:42;7.10;;;4.53;;
40635;SDS011;26642;55.766;37.828;2023-05-23T08:14:09;7.85;;;4.40;;
40635;SDS011;26642;55.766;37.828;2023-05-23T08:16:35;5.90;;;4.70;;
40635;SDS011;26642;55.766;37.828;2023-05-23T08:19:09;10.57;;;4.93;;
40635;SDS011;26642;55.766;37.828;2023-05-23T08:21:36;8.57;;;4.90;;
40635;SDS011;26642;55.766;37.828;2023-05-23T08:24:02;7.07;;;4.65;;
40635;SDS011;26642;55.766;37.828;2023-05-23T08:26:29;6.97;;;4.72;;
40635;SDS011;26642;55.766;37.828;2023-05-23T08:29:00;7.95;;;5.03;;
40635;SDS011;26642;55.766;37.828;2023-05-23T08:31:27;6.47;;;4.47;;
40635;SDS011;26642;55.766;37.828;2023-05-23T08:33:54;5.53;;;4.10;;
40635;SDS011;26642;55.766;37.828;2023-05-23T08:36:20;4.53;;;3.78;;
40635;SDS011;26642;55.766;37.828;2023-05-23T08:38:49;5.55;;;3.72;;
40635;SDS011;26642;55.766;37.828;2023-05-23T08:41:39;6.15;;;3.20;;
40635;SDS011;26642;55.766;37.828;2023-05-23T08:44:09;4.20;;;3.47;;
40635;SDS011;26642;55.766;37.828;2023-05-23T08:46:43;4.75;;;3.58;;
40635;SDS011;26642;55.766;37.828;2023-05-23T08:49:16;7.75;;;3.60;;
40635;SDS011;26642;55.766;37.828;2023-05-23T08:51:43;4.55;;;3.35;;
40635;SDS011;26642;55.766;37.828;2023-05-23T08:54:17;7.07;;;4.13;;
40635;SDS011;26642;55.766;37.828;2023-05-23T08:56:44;6.47;;;3.42;;
40635;SDS011;26642;55.766;37.828;2023-05-23T08:59:11;8.25;;;3.42;;
40635;SDS011;26642;55.766;37.828;2023-05-23T09:01:39;4.30;;;3.22;;
40635;SDS011;26642;55.766;37.828;2023-05-23T09:04:10;5.25;;;3.70;;
40635;SDS011;26642;55.766;37.828;2023-05-23T09:06:59;6.18;;;3.35;;
40635;SDS011;26642;55.766;37.828;2023-05-23T09:09:28;3.75;;;3.35;;
40635;SDS011;26642;55.766;37.828;2023-05-23T09:11:55;5.25;;;3.53;;
40635;SDS011;26642;55.766;37.828;2023-05-23T09:14:25;7.47;;;3.50;;
40635;SDS011;26642;55.766;37.828;2023-05-23T09:17:00;4.38;;;3.65;;
40635;SDS011;26642;55.766;37.828;2023-05-23T09:19:27;6.85;;;3.80;;
40635;SDS011;26642;55.766;37.828;2023-05-23T09:22:01;6.65;;;3.40;;
40635;SDS011;26642;55.766;37.828;2023-05-23T09:24:33;5.05;;;3.45;;
40635;SDS011;26642;55.766;37.828;2023-05-23T09:27:03;5.15;;;3.75;;
40635;SDS011;26642;55.766;37.828;2023-05-23T09:29:31;5.47;;;3.55;;
40635;SDS011;26642;55.766;37.828;2023-05-23T09:32:14;7.40;;;3.65;;
40635;SDS011;26642;55.766;37.828;2023-05-23T09:34:54;4.93;;;3.58;;
40635;SDS011;26642;55.766;37.828;2023-05-23T09:37:45;5.65;;;3.42;;
40635;SDS011;26642;55.766;37.828;2023-05-23T09:40:14;4.93;;;3.67;;
40635;SDS011;26642;55.766;37.828;2023-05-23T09:42:50;4.63;;;3.00;;
40635;SDS011;26642;55.766;37.828;2023-05-23T09:45:16;5.05;;;3.42;;
40635;SDS011;26642;55.766;37.828;2023-05-23T09:47:49;4.80;;;3.50;;
40635;SDS011;26642;55.766;37.828;2023-05-23T09:50:16;7.05;;;3.80;;
40635;SDS011;26642;55.766;37.828;2023-05-23T09:52:42;4.10;;;3.28;;
40635;SDS011;26642;55.766;37.828;2023-05-23T09:55:09;4.05;;;3.38;;
40635;SDS011;26642;55.766;37.828;2023-05-23T09:57:36;5.25;;;3.42;;
40635;SDS011;26642;55.766;37.828;2023-05-23T10:00:05;5.07;;;3.33;;
40635;SDS011;26642;55.766;37.828;2023-05-23T10:05:20;4.00;;;3.22;;
40635;SDS011;26642;55.766;37.828;2023-05-23T10:08:00;4.55;;;3.17;;
40635;SDS011;26642;55.766;37.828;2023-05-23T10:10:30;5.00;;;2.88;;
40635;SDS011;26642;55.766;37.828;2023-05-23T10:12:58;5.90;;;2.58;;
40635;SDS011;26642;55.766;37.828;2023-05-23T10:15:34;4.57;;;3.08;;
40635;SDS011;26642;55.766;37.828;2023-05-23T10:18:15;5.78;;;3.17;;
40635;SDS011;26642;55.766;37.828;2023-05-23T10:20:48;6.30;;;3.40;;
40635;SDS011;26642;55.766;37.828;2023-05-23T10:23:21;3.30;;;2.83;;
40635;SDS011;26642;55.766;37.828;2023-05-23T10:25:48;5.35;;;3.50;;
40635;SDS011;26642;55.766;37.828;2023-05-23T10:28:14;8.88;;;3.15;;
40635;SDS011;26642;55.766;37.828;2023-05-23T10:30:41;4.72;;;3.08;;
40635;SDS011;26642;55.766;37.828;2023-05-23T10:33:07;5.05;;;2.97;;
40635;SDS011;26642;55.766;37.828;2023-05-23T10:38:19;3.63;;;2.97;;
40635;SDS011;26642;55.766;37.828;2023-05-23T10:49:22;3.45;;;3.15;;
40635;SDS011;26642;55.766;37.828;2023-05-23T10:52:03;3.63;;;3.13;;
40635;SDS011;26642;55.766;37.828;2023-05-23T10:54:35;4.28;;;3.25;;
40635;SDS011;26642;55.766;37.828;2023-05-23T10:57:05;4.00;;;3.03;;
40635;SDS011;26642;55.766;37.828;2023-05-23T10:59:34;3.75;;;3.10;;
40635;SDS011;26642;55.766;37.828;2023-05-23T11:02:02;4.95;;;3.20;;
40635;SDS011;26642;55.766;37.828;2023-05-23T11:04:37;4.25;;;2.97;;
40635;SDS011;26642;55.766;37.828;2023-05-23T11:07:03;3.35;;;3.05;;
40635;SDS011;26642;55.766;37.828;2023-05-23T11:09:29;4.60;;;2.78;;
40635;SDS011;26642;55.766;37.828;2023-05-23T11:11:59;7.20;;;3.63;;
40635;SDS011;26642;55.766;37.828;2023-05-23T11:14:31;5.00;;;3.40;;
40635;SDS011;26642;55.766;37.828;2023-05-23T11:19:37;6.20;;;3.33;;
40635;SDS011;26642;55.766;37.828;2023-05-23T11:22:07;4.65;;;3.65;;
40635;SDS011;26642;55.766;37.828;2023-05-23T11:24:50;4.30;;;3.50;;
40635;SDS011;26642;55.766;37.828;2023-05-23T11:27:27;4.82;;;3.40;;
40635;SDS011;26642;55.766;37.828;2023-05-23T11:30:11;5.10;;;3.80;;
40635;SDS011;26642;55.766;37.828;2023-05-23T11:32:41;4.72;;;3.55;;
40635;SDS011;26642;55.766;37.828;2023-05-23T11:35:15;8.85;;;4.13;;
40635;SDS011;26642;55.766;37.828;2023-05-23T11:37:42;7.53;;;4.10;;
40635;SDS011;26642;55.766;37.828;2023-05-23T11:42:53;5.07;;;3.95;;
40635;SDS011;26642;55.766;37.828;2023-05-23T11:45:20;4.15;;;3.55;;
40635;SDS011;26642;55.766;37.828;2023-05-23T11:47:49;6.60;;;4.10;;
40635;SDS011;26642;55.766;37.828;2023-05-23T11:50:15;4.80;;;3.92;;
40635;SDS011;26642;55.766;37.828;2023-05-23T11:52:42;4.53;;;3.83;;
40635;SDS011;26642;55.766;37.828;2023-05-23T11:55:08;5.95;;;3.67;;
40635;SDS011;26642;55.766;37.828;2023-05-23T11:57:38;6.20;;;3.65;;
40635;SDS011;26642;55.766;37.828;2023-05-23T12:00:07;4.35;;;3.70;;
40635;SDS011;26642;55.766;37.828;2023-05-23T12:02:38;6.32;;;3.58;;
40635;SDS011;26642;55.766;37.828;2023-05-23T12:05:06;4.85;;;3.70;;
40635;SDS011;26642;55.766;37.828;2023-05-23T12:07:39;6.43;;;3.53;;
40635;SDS011;26642;55.766;37.828;2023-05-23T12:10:15;7.32;;;3.75;;
40635;SDS011;26642;55.766;37.828;2023-05-23T12:12:42;4.95;;;3.75;;
40635;SDS011;26642;55.766;37.828;2023-05-23T12:15:09;5.95;;;3.17;;
40635;SDS011;26642;55.766;37.828;2023-05-23T12:17:36;4.18;;;3.10;;
40635;SDS011;26642;55.766;37.828;2023-05-23T12:20:04;3.60;;;3.10;;
40635;SDS011;26642;55.766;37.828;2023-05-23T12:22:31;3.47;;;3.05;;
40635;SDS011;26642;55.766;37.828;2023-05-23T12:24:57;4.88;;;3.00;;
40635;SDS011;26642;55.766;37.828;2023-05-23T12:27:32;4.93;;;3.30;;
40635;SDS011;26642;55.766;37.828;2023-05-23T12:30:09;5.35;;;3.50;;
40635;SDS011;26642;55.766;37.828;2023-05-23T12:32:38;5.93;;;3.40;;
40635;SDS011;26642;55.766;37.828;2023-05-23T12:35:09;4.72;;;3.00;;
40635;SDS011;26642;55.766;37.828;2023-05-23T12:37:38;5.05;;;3.08;;
40635;SDS011;26642;55.766;37.828;2023-05-23T12:40:14;6.28;;;3.42;;
40635;SDS011;26642;55.766;37.828;2023-05-23T12:45:23;5.68;;;3.17;;
40635;SDS011;26642;55.766;37.828;2023-05-23T12:47:58;5.57;;;3.05;;
40635;SDS011;26642;55.766;37.828;2023-05-23T12:50:24;6.07;;;3.70;;
40635;SDS011;26642;55.766;37.828;2023-05-23T12:52:50;3.90;;;3.20;;
40635;SDS011;26642;55.766;37.828;2023-05-23T12:55:16;6.20;;;2.80;;
40635;SDS011;26642;55.766;37.828;2023-05-23T12:57:42;3.58;;;2.92;;
40635;SDS011;26642;55.766;37.828;2023-05-23T13:00:09;4.22;;;3.10;;
40635;SDS011;26642;55.766;37.828;2023-05-23T13:02:35;5.20;;;3.30;;
40635;SDS011;26642;55.766;37.828;2023-05-23T13:05:02;4.75;;;3.20;;
40635;SDS011;26642;55.766;37.828;2023-05-23T13:07:29;5.25;;;2.90;;
40635;SDS011;26642;55.766;37.828;2023-05-23T13:09:55;5.68;;;3.45;;
40635;SDS011;26642;55.766;37.828;2023-05-23T13:12:21;5.07;;;3.20;;
40635;SDS011;26642;55.766;37.828;2023-05-23T13:14:48;7.13;;;3.65;;
40635;SDS011;26642;55.766;37.828;2023-05-23T13:17:14;5.38;;;3.72;;
40635;SDS011;26642;55.766;37.828;2023-05-23T13:19:40;4.45;;;3.58;;
40635;SDS011;26642;55.766;37.828;2023-05-23T13:22:06;4.25;;;3.35;;
40635;SDS011;26642;55.766;37.828;2023-05-23T13:24:36;6.32;;;3.80;;
40635;SDS011;26642;55.766;37.828;2023-05-23T13:27:03;6.72;;;3.47;;
40635;SDS011;26642;55.766;37.828;2023-05-23T13:29:30;6.80;;;3.75;;
40635;SDS011;26642;55.766;37.828;2023-05-23T13:31:56;8.65;;;3.83;;
40635;SDS011;26642;55.766;37.828;2023-05-23T13:34:23;6.72;;;3.63;;
40635;SDS011;26642;55.766;37.828;2023-05-23T13:36:49;5.97;;;3.67;;
40635;SDS011;26642;55.766;37.828;2023-05-23T13:39:15;7.00;;;3.70;;
40635;SDS011;26642;55.766;37.828;2023-05-23T13:41:41;6.38;;;3.33;;
40635;SDS011;26642;55.766;37.828;2023-05-23T13:44:07;5.07;;;3.28;;
40635;SDS011;26642;55.766;37.828;2023-05-23T13:46:33;7.28;;;3.13;;
40635;SDS011;26642;55.766;37.828;2023-05-23T13:48:59;4.05;;;2.97;;
40635;SDS011;26642;55.766;37.828;2023-05-23T13:51:25;4.00;;;3.22;;
40635;SDS011;26642;55.766;37.828;2023-05-23T13:53:51;6.30;;;3.38;;
40635;SDS011;26642;55.766;37.828;2023-05-23T13:56:17;5.22;;;3.38;;
40635;SDS011;26642;55.766;37.828;2023-05-23T13:58:43;5.22;;;3.25;;
40635;SDS011;26642;55.766;37.828;2023-05-23T14:01:11;4.40;;;3.08;;
40635;SDS011;26642;55.766;37.828;2023-05-23T14:03:37;4.78;;;3.45;;
40635;SDS011;26642;55.766;37.828;2023-05-23T14:06:03;3.30;;;2.95;;
40635;SDS011;26642;55.766;37.828;2023-05-23T14:08:29;4.85;;;2.70;;
40635;SDS011;26642;55.766;37.828;2023-05-23T14:10:55;4.78;;;3.13;;
40635;SDS011;26642;55.766;37.828;2023-05-23T14:13:21;5.53;;;3.05;;
40635;SDS011;26642;55.766;37.828;2023-05-23T14:15:49;10.85;;;3.72;;
40635;SDS011;26642;55.766;37.828;2023-05-23T14:18:15;4.20;;;2.70;;
40635;SDS011;26642;55.766;37.828;2023-05-23T14:20:41;3.72;;;2.70;;
40635;SDS011;26642;55.766;37.828;2023-05-23T14:23:07;8.05;;;3.25;;
40635;SDS011;26642;55.766;37.828;2023-05-23T14:25:33;3.90;;;2.92;;
40635;SDS011;26642;55.766;37.828;2023-05-23T14:27:59;4.55;;;3.10;;
40635;SDS011;26642;55.766;37.828;2023-05-23T14:30:25;6.47;;;3.28;;
40635;SDS011;26642;55.766;37.828;2023-05-23T14:32:51;3.50;;;2.80;;
40635;SDS011;26642;55.766;37.828;2023-05-23T14:35:18;4.03;;;3.30;;
40635;SDS011;26642;55.766;37.828;2023-05-23T14:37:46;5.20;;;3.20;;
40635;SDS011;26642;55.766;37.828;2023-05-23T14:40:12;5.35;;;3.13;;
40635;SDS011;26642;55.766;37.828;2023-05-23T14:42:40;4.40;;;3.20;;
40635;SDS011;26642;55.766;37.828;2023-05-23T14:45:06;5.38;;;3.17;;
40635;SDS011;26642;55.766;37.828;2023-05-23T14:47:33;8.13;;;3.20;;
40635;SDS011;26642;55.766;37.828;2023-05-23T14:49:59;5.78;;;3.05;;
40635;SDS011;26642;55.766;37.828;2023-05-23T14:52:25;4.80;;;2.80;;
40635;SDS011;26642;55.766;37.828;2023-05-23T14:54:51;4.85;;;3.08;;
40635;SDS011;26642;55.766;37.828;2023-05-23T14:57:17;4.05;;;2.88;;
40635;SDS011;26642;55.766;37.828;2023-05-23T14:59:43;5.13;;;3.10;;
40635;SDS011;26642;55.766;37.828;2023-05-23T15:02:10;6.03;;;3.13;;
40635;SDS011;26642;55.766;37.828;2023-05-23T15:04:36;3.42;;;2.95;;
40635;SDS011;26642;55.766;37.828;2023-05-23T15:07:02;4.45;;;2.90;;